createdAt,value
2019-05-06T00:00:28.534Z,57.24
2019-05-06T00:01:28.541Z,57.54
2019-05-06T00:02:28.496Z,57.44
2019-05-06T00:03:28.497Z,57.24
2019-05-06T00:04:28.474Z,57.24
2019-05-06T00:05:28.509Z,57.24
2019-05-06T00:06:28.460Z,57.34
2019-05-06T00:07:28.466Z,57.98
2019-05-06T00:08:28.434Z,57.65
2019-05-06T00:09:28.427Z,57.65
2019-05-06T00:10:28.411Z,58.16
2019-05-06T00:11:28.405Z,57.86
2019-05-06T00:12:28.411Z,57.86
2019-05-06T00:13:28.377Z,57.75
2019-05-06T00:14:28.372Z,57.98
2019-05-06T00:15:28.367Z,57.65
2019-05-06T00:16:28.375Z,57.78
2019-05-06T00:17:28.373Z,57.78
2019-05-06T00:18:28.329Z,57.86
2019-05-06T00:19:28.317Z,57.75
2019-05-06T00:20:28.307Z,57.75
2019-05-06T00:21:28.311Z,57.65
2019-05-06T00:22:28.341Z,57.96
2019-05-06T00:23:28.296Z,57.96
2019-05-06T00:24:28.268Z,57.86
2019-05-06T00:25:28.253Z,57.75
2019-05-06T00:26:28.241Z,57.65
2019-05-06T00:27:28.246Z,58.16
2019-05-06T00:28:28.226Z,57.86
2019-05-06T00:29:28.209Z,57.86
2019-05-06T00:30:28.207Z,57.34
2019-05-06T00:31:28.183Z,57.96
2019-05-06T00:32:28.192Z,57.96
2019-05-06T00:33:28.162Z,57.75
2019-05-06T00:34:28.152Z,57.65
2019-05-06T00:35:28.148Z,57.73
2019-05-06T00:36:28.896Z,57.96
2019-05-06T00:37:28.137Z,57.62
2019-05-06T00:38:28.107Z,57.62
2019-05-06T00:39:28.101Z,58.14
2019-05-06T00:40:28.102Z,58.24
2019-05-06T00:41:28.127Z,57.52
2019-05-06T00:42:28.087Z,57.65
2019-05-06T00:43:28.057Z,57.73
2019-05-06T00:44:28.054Z,58.03
2019-05-06T00:45:28.039Z,57.62
2019-05-06T00:46:28.034Z,57.93
2019-05-06T00:47:28.047Z,57.73
2019-05-06T00:48:28.030Z,57.93
2019-05-06T00:49:27.996Z,57.42
2019-05-06T00:50:27.982Z,57.82
2019-05-06T00:51:27.977Z,57.42
2019-05-06T00:52:27.969Z,57.93
2019-05-06T00:53:27.974Z,57.42
2019-05-06T00:54:27.942Z,57.31
2019-05-06T00:55:27.926Z,57.21
2019-05-06T00:56:27.928Z,57.31
2019-05-06T00:57:27.912Z,57.82
2019-05-06T00:58:27.914Z,57.93
2019-05-06T00:59:27.884Z,57.73
2019-05-06T01:00:27.888Z,57.21
2019-05-06T01:01:29.789Z,57.01
2019-05-06T01:02:27.858Z,57.01
2019-05-06T01:03:27.866Z,57.10
2019-05-06T01:04:27.841Z,57.62
2019-05-06T01:05:27.828Z,57.82
2019-05-06T01:06:27.812Z,57.01
2019-05-06T01:07:27.803Z,57.01
2019-05-06T01:08:27.820Z,57.21
2019-05-06T01:09:27.782Z,57.31
2019-05-06T01:10:27.775Z,57.31
2019-05-06T01:11:27.757Z,57.21
2019-05-06T01:12:27.747Z,57.75
2019-05-06T01:13:27.763Z,57.73
2019-05-06T01:14:27.726Z,57.62
2019-05-06T01:15:27.718Z,57.62
2019-05-06T01:16:27.709Z,57.73
2019-05-06T01:17:27.704Z,57.62
2019-05-06T01:18:27.730Z,57.75
2019-05-06T01:19:27.671Z,58.16
2019-05-06T01:20:27.689Z,58.26
2019-05-06T01:21:27.664Z,57.65
2019-05-06T01:22:27.640Z,58.06
2019-05-06T01:23:27.628Z,58.70
2019-05-06T01:24:27.637Z,58.26
2019-05-06T01:25:27.613Z,58.16
2019-05-06T01:26:27.603Z,58.16
2019-05-06T01:27:27.601Z,58.68
2019-05-06T01:28:27.577Z,58.68
2019-05-06T01:29:27.576Z,58.26
2019-05-06T01:30:27.558Z,58.09
2019-05-06T01:31:39.838Z,58.06
2019-05-06T01:32:28.534Z,57.86
2019-05-06T01:33:27.541Z,58.09
2019-05-06T01:34:27.546Z,58.09
2019-05-06T01:35:27.504Z,59.22
2019-05-06T01:36:27.501Z,58.60
2019-05-06T01:37:27.663Z,58.50
2019-05-06T01:38:27.476Z,58.70
2019-05-06T01:39:27.479Z,59.01
2019-05-06T01:40:27.452Z,59.01
2019-05-06T01:41:27.435Z,59.25
2019-05-06T01:42:27.429Z,59.35
2019-05-06T01:43:27.417Z,59.56
2019-05-06T01:44:27.424Z,59.66
2019-05-06T01:45:27.395Z,59.35
2019-05-06T01:46:27.380Z,59.45
2019-05-06T01:47:27.369Z,59.77
2019-05-06T01:48:27.371Z,60.07
2019-05-06T01:49:27.422Z,59.66
2019-05-06T01:50:27.351Z,60.38
2019-05-06T01:51:27.333Z,60.31
2019-05-06T01:52:27.319Z,60.38
2019-05-06T01:53:27.309Z,60.79
2019-05-06T01:54:27.326Z,60.93
2019-05-06T01:55:27.293Z,61.24
2019-05-06T01:56:27.291Z,61.54
2019-05-06T01:57:27.265Z,61.54
2019-05-06T01:58:27.253Z,61.24
2019-05-06T01:59:27.245Z,61.24
2019-05-06T02:00:27.256Z,61.33
2019-05-06T02:01:27.237Z,61.33
2019-05-06T02:02:27.217Z,61.65
2019-05-06T02:03:27.211Z,61.68
2019-05-06T02:04:27.193Z,61.36
2019-05-06T02:05:27.396Z,61.16
2019-05-06T02:06:27.173Z,61.36
2019-05-06T02:07:27.166Z,61.36
2019-05-06T02:08:27.147Z,61.78
2019-05-06T02:09:27.140Z,61.57
2019-05-06T02:10:27.158Z,61.57
2019-05-06T02:11:27.117Z,61.68
2019-05-06T02:12:27.133Z,61.80
2019-05-06T02:13:27.152Z,61.78
2019-05-06T02:14:27.085Z,61.80
2019-05-06T02:15:27.101Z,62.12
2019-05-06T02:16:27.069Z,61.70
2019-05-06T02:17:27.053Z,62.32
2019-05-06T02:18:27.058Z,62.32
2019-05-06T02:19:27.039Z,62.32
2019-05-06T02:20:27.044Z,62.43
2019-05-06T02:21:27.015Z,62.12
2019-05-06T02:22:26.999Z,61.91
2019-05-06T02:23:26.995Z,62.84
2019-05-06T02:24:26.988Z,62.94
2019-05-06T02:25:26.992Z,63.39
2019-05-06T02:26:26.957Z,63.39
2019-05-06T02:27:26.956Z,63.28
2019-05-06T02:28:26.936Z,63.90
2019-05-06T02:29:26.926Z,64.00
2019-05-06T02:30:26.935Z,63.62
2019-05-06T02:31:26.930Z,63.59
2019-05-06T02:32:30.941Z,64.31
2019-05-06T02:33:26.934Z,64.21
2019-05-06T02:34:26.874Z,63.90
2019-05-06T02:35:26.900Z,64.34
2019-05-06T02:36:26.865Z,65.17
2019-05-06T02:37:26.846Z,64.96
2019-05-06T02:38:34.169Z,65.06
2019-05-06T02:39:27.831Z,65.06
2019-05-06T02:40:26.838Z,65.48
2019-05-06T02:41:26.802Z,65.79
2019-05-06T02:42:26.794Z,65.69
2019-05-06T02:43:26.781Z,65.41
2019-05-06T02:44:26.767Z,65.20
2019-05-06T02:45:26.786Z,65.17
2019-05-06T02:46:26.764Z,65.69
2019-05-06T02:47:26.739Z,66.03
2019-05-06T02:48:26.730Z,66.33
2019-05-06T02:49:26.715Z,66.64
2019-05-06T02:50:26.736Z,66.54
2019-05-06T02:51:26.719Z,66.64
2019-05-06T02:52:26.683Z,66.44
2019-05-06T02:53:26.677Z,66.26
2019-05-06T02:54:26.699Z,66.44
2019-05-06T02:55:26.650Z,66.33
2019-05-06T02:56:26.696Z,66.88
2019-05-06T02:57:26.633Z,66.47
2019-05-06T02:58:26.620Z,66.57
2019-05-06T02:59:26.628Z,66.78
2019-05-06T03:00:26.617Z,66.88
2019-05-06T03:01:26.607Z,67.50
2019-05-06T03:02:42.092Z,67.19
2019-05-06T03:03:27.574Z,67.22
2019-05-06T03:04:26.563Z,67.61
2019-05-06T03:05:26.558Z,67.33
2019-05-06T03:06:26.561Z,67.95
2019-05-06T03:07:26.521Z,67.91
2019-05-06T03:08:26.522Z,68.02
2019-05-06T03:09:26.515Z,68.05
2019-05-06T03:10:26.500Z,68.15
2019-05-06T03:11:26.513Z,68.15
2019-05-06T03:12:26.471Z,68.26
2019-05-06T03:13:26.458Z,68.36
2019-05-06T03:14:26.452Z,68.40
2019-05-06T03:15:26.443Z,69.09
2019-05-06T03:16:26.447Z,69.01
2019-05-06T03:17:26.423Z,69.12
2019-05-06T03:18:26.408Z,68.91
2019-05-06T03:19:26.402Z,69.32
2019-05-06T03:20:26.387Z,69.22
2019-05-06T03:21:26.394Z,69.74
2019-05-06T03:22:27.771Z,70.15
2019-05-06T03:23:26.350Z,69.12
2019-05-06T03:24:26.344Z,69.84
2019-05-06T03:25:26.349Z,69.64
2019-05-06T03:26:26.351Z,69.95
2019-05-06T03:27:26.312Z,70.47
2019-05-06T03:28:26.308Z,70.36
2019-05-06T03:29:26.315Z,70.50
2019-05-06T03:30:26.282Z,70.50
2019-05-06T03:31:26.753Z,70.77
2019-05-06T03:32:30.775Z,70.70
2019-05-06T03:33:46.869Z,70.39
2019-05-06T03:34:48.983Z,70.18
2019-05-06T03:36:34.623Z,70.50
2019-05-06T03:37:27.205Z,71.01
2019-05-06T03:38:26.208Z,71.12
2019-05-06T03:39:26.184Z,71.53
2019-05-06T03:40:26.212Z,71.53
2019-05-06T03:41:26.709Z,71.43
2019-05-06T03:42:26.168Z,71.22
2019-05-06T03:43:26.137Z,71.22
2019-05-06T03:44:26.133Z,71.12
2019-05-06T03:45:26.127Z,71.63
2019-05-06T03:46:26.125Z,71.84
2019-05-06T03:47:26.134Z,71.73
2019-05-06T03:48:26.103Z,72.15
2019-05-06T03:49:26.085Z,71.84
2019-05-06T03:50:26.078Z,72.15
2019-05-06T03:51:26.057Z,72.05
2019-05-06T03:52:26.073Z,72.15
2019-05-06T03:53:26.033Z,72.25
2019-05-06T03:54:26.030Z,71.94
2019-05-06T03:55:26.022Z,72.05
2019-05-06T03:56:26.013Z,72.46
2019-05-06T03:57:26.114Z,72.56
2019-05-06T03:58:26.752Z,72.05
2019-05-06T03:59:25.980Z,72.36
2019-05-06T04:00:25.966Z,72.56
2019-05-06T04:01:25.952Z,72.46
2019-05-06T04:02:25.981Z,72.56
2019-05-06T04:03:42.712Z,72.56
2019-05-06T04:04:26.917Z,72.56
2019-05-06T04:05:25.907Z,72.67
2019-05-06T04:06:25.898Z,72.46
2019-05-06T04:07:25.906Z,72.46
2019-05-06T04:08:25.890Z,72.46
2019-05-06T04:09:25.871Z,72.36
2019-05-06T04:10:25.851Z,72.46
2019-05-06T04:11:25.837Z,72.46
2019-05-06T04:12:25.834Z,72.36
2019-05-06T04:13:25.857Z,72.56
2019-05-06T04:14:25.827Z,72.46
2019-05-06T04:15:26.723Z,72.56
2019-05-06T04:16:25.786Z,72.56
2019-05-06T04:17:25.777Z,72.46
2019-05-06T04:18:25.782Z,72.56
2019-05-06T04:19:25.760Z,72.36
2019-05-06T04:20:25.751Z,72.46
2019-05-06T04:21:25.734Z,72.25
2019-05-06T04:22:25.725Z,72.25
2019-05-06T04:23:25.731Z,72.05
2019-05-06T04:24:25.705Z,72.36
2019-05-06T04:25:25.694Z,72.36
2019-05-06T04:26:25.695Z,72.56
2019-05-06T04:27:25.692Z,72.46
2019-05-06T04:28:25.674Z,72.46
2019-05-06T04:29:25.652Z,72.15
2019-05-06T04:30:25.648Z,72.33
2019-05-06T04:31:25.624Z,72.56
2019-05-06T04:32:25.626Z,72.33
2019-05-06T04:33:25.644Z,72.36
2019-05-06T04:34:25.597Z,72.36
2019-05-06T04:35:25.591Z,72.15
2019-05-06T04:36:25.575Z,72.15
2019-05-06T04:37:25.610Z,72.05
2019-05-06T04:38:25.572Z,72.25
2019-05-06T04:39:25.558Z,72.02
2019-05-06T04:40:25.531Z,72.22
2019-05-06T04:41:26.769Z,72.53
2019-05-06T04:42:27.039Z,72.53
2019-05-06T04:43:26.773Z,72.33
2019-05-06T04:44:25.514Z,71.91
2019-05-06T04:45:25.483Z,71.91
2019-05-06T04:46:25.477Z,72.02
2019-05-06T04:47:25.488Z,72.02
2019-05-06T04:48:25.451Z,71.81
2019-05-06T04:49:25.463Z,72.02
2019-05-06T04:50:25.428Z,72.02
2019-05-06T04:51:25.412Z,71.81
2019-05-06T04:52:26.116Z,71.60
2019-05-06T04:53:27.050Z,71.70
2019-05-06T04:54:26.599Z,71.81
2019-05-06T04:55:25.406Z,71.70
2019-05-06T04:56:25.371Z,71.47
2019-05-06T04:57:25.351Z,71.05
2019-05-06T04:58:25.389Z,71.67
2019-05-06T04:59:25.334Z,70.74
2019-05-06T05:00:25.447Z,71.29
2019-05-06T05:01:25.307Z,71.19
2019-05-06T05:02:25.302Z,70.84
2019-05-06T05:03:25.286Z,71.05
2019-05-06T05:04:32.211Z,71.26
2019-05-06T05:05:26.289Z,71.33
2019-05-06T05:06:25.273Z,71.22
2019-05-06T05:07:25.244Z,70.50
2019-05-06T05:08:25.242Z,70.71
2019-05-06T05:09:25.233Z,69.95
2019-05-06T05:10:25.236Z,69.54
2019-05-06T05:11:25.203Z,70.06
2019-05-06T05:12:25.200Z,68.88
2019-05-06T05:13:25.212Z,68.99
2019-05-06T05:14:26.108Z,68.68
2019-05-06T05:15:25.222Z,68.78
2019-05-06T05:16:25.166Z,69.74
2019-05-06T05:17:25.174Z,69.54
2019-05-06T05:18:25.138Z,70.16
2019-05-06T05:19:25.121Z,69.95
2019-05-06T05:20:36.973Z,70.29
2019-05-06T05:21:26.092Z,70.16
2019-05-06T05:22:25.090Z,70.61
2019-05-06T05:23:25.106Z,70.92
2019-05-06T05:24:25.063Z,70.88
2019-05-06T05:25:25.054Z,70.50
2019-05-06T05:26:25.069Z,70.57
2019-05-06T05:27:25.035Z,70.57
2019-05-06T05:28:25.048Z,70.37
2019-05-06T05:29:25.027Z,70.81
2019-05-06T05:30:25.014Z,70.67
2019-05-06T05:31:25.022Z,70.71
2019-05-06T05:32:26.837Z,70.47
2019-05-06T05:33:24.978Z,70.57
2019-05-06T05:34:37.079Z,70.47
2019-05-06T05:35:25.976Z,70.37
2019-05-06T05:36:24.959Z,70.23
2019-05-06T05:37:24.983Z,70.33
2019-05-06T05:38:24.916Z,70.06
2019-05-06T05:39:24.922Z,70.23
2019-05-06T05:40:24.900Z,70.37
2019-05-06T05:41:24.894Z,69.71
2019-05-06T05:42:24.895Z,69.85
2019-05-06T05:43:24.868Z,69.71
2019-05-06T05:44:24.871Z,69.61
2019-05-06T05:45:24.842Z,69.61
2019-05-06T05:46:24.839Z,69.71
2019-05-06T05:47:24.836Z,69.09
2019-05-06T05:48:24.821Z,69.40
2019-05-06T05:49:24.830Z,69.92
2019-05-06T05:50:24.792Z,69.09
2019-05-06T05:51:24.784Z,69.71
2019-05-06T05:52:24.818Z,68.85
2019-05-06T05:53:24.782Z,69.78
2019-05-06T05:54:24.779Z,68.75
2019-05-06T05:55:24.800Z,69.03
2019-05-06T05:56:24.724Z,68.85
2019-05-06T05:57:24.716Z,68.96
2019-05-06T05:58:25.165Z,68.93
2019-05-06T05:59:24.723Z,68.30
2019-05-06T06:00:24.688Z,68.00
2019-05-06T06:01:24.703Z,68.21
2019-05-06T06:02:24.676Z,68.30
2019-05-06T06:03:24.676Z,68.30
2019-05-06T06:04:24.643Z,68.17
2019-05-06T06:05:24.641Z,68.07
2019-05-06T06:06:24.618Z,68.17
2019-05-06T06:07:24.637Z,68.17
2019-05-06T06:08:24.805Z,68.48
2019-05-06T06:09:24.594Z,68.27
2019-05-06T06:10:24.585Z,67.73
2019-05-06T06:11:24.567Z,67.42
2019-05-06T06:12:24.566Z,67.73
2019-05-06T06:13:24.588Z,67.42
2019-05-06T06:14:24.554Z,67.39
2019-05-06T06:15:24.531Z,67.39
2019-05-06T06:16:24.536Z,66.67
2019-05-06T06:17:24.507Z,67.08
2019-05-06T06:18:24.513Z,66.56
2019-05-06T06:19:24.514Z,66.22
2019-05-06T06:20:24.473Z,66.36
2019-05-06T06:21:28.128Z,66.36
2019-05-06T06:22:24.453Z,66.67
2019-05-06T06:23:24.447Z,66.67
2019-05-06T06:24:24.445Z,66.77
2019-05-06T06:25:24.442Z,66.67
2019-05-06T06:26:24.409Z,66.46
2019-05-06T06:27:24.419Z,66.67
2019-05-06T06:28:24.387Z,66.43
2019-05-06T06:29:24.401Z,66.64
2019-05-06T06:30:24.367Z,66.43
2019-05-06T06:31:24.351Z,66.22
2019-05-06T06:32:24.346Z,66.22
2019-05-06T06:33:24.350Z,65.92
2019-05-06T06:34:24.352Z,66.30
2019-05-06T06:35:24.311Z,66.40
2019-05-06T06:36:24.302Z,65.99
2019-05-06T06:37:24.299Z,66.19
2019-05-06T06:38:24.294Z,66.30
2019-05-06T06:39:24.273Z,66.40
2019-05-06T06:40:24.285Z,65.89
2019-05-06T06:41:24.257Z,66.19
2019-05-06T06:42:24.268Z,66.40
2019-05-06T06:43:24.227Z,64.96
2019-05-06T06:44:24.222Z,65.26
2019-05-06T06:45:24.265Z,65.58
2019-05-06T06:46:24.191Z,65.47
2019-05-06T06:47:24.185Z,65.47
2019-05-06T06:48:24.177Z,65.47
2019-05-06T06:49:24.158Z,65.37
2019-05-06T06:50:24.255Z,65.16
2019-05-06T06:51:24.171Z,64.03
2019-05-06T06:52:24.170Z,63.62
2019-05-06T06:53:24.123Z,64.51
2019-05-06T06:54:24.116Z,65.23
2019-05-06T06:55:24.132Z,64.18
2019-05-06T06:56:24.108Z,64.18
2019-05-06T06:57:24.097Z,63.46
2019-05-06T06:58:24.068Z,63.67
2019-05-06T06:59:24.076Z,63.67
2019-05-06T07:00:24.169Z,64.07
2019-05-06T07:01:24.053Z,63.46
2019-05-06T07:02:24.041Z,63.25
2019-05-06T07:03:24.014Z,62.95
2019-05-06T07:04:24.003Z,63.15
2019-05-06T07:05:28.161Z,62.74
2019-05-06T07:06:23.983Z,62.53
2019-05-06T07:07:23.969Z,62.23
2019-05-06T07:08:33.973Z,62.63
2019-05-06T07:09:24.957Z,62.74
2019-05-06T07:10:23.948Z,61.81
2019-05-06T07:11:23.934Z,61.71
2019-05-06T07:12:23.947Z,61.71
2019-05-06T07:13:23.912Z,61.58
2019-05-06T07:14:23.913Z,61.58
2019-05-06T07:15:23.936Z,60.86
2019-05-06T07:16:23.906Z,60.35
2019-05-06T07:17:23.863Z,60.14
2019-05-06T07:18:23.859Z,60.11
2019-05-06T07:19:23.887Z,60.11
2019-05-06T07:20:23.870Z,60.11
2019-05-06T07:21:23.838Z,59.70
2019-05-06T07:22:23.814Z,59.59
2019-05-06T07:23:23.794Z,59.36
2019-05-06T07:24:23.796Z,59.16
2019-05-06T07:25:23.802Z,58.75
2019-05-06T07:26:23.940Z,58.83
2019-05-06T07:27:23.758Z,58.51
2019-05-06T07:28:23.747Z,58.51
2019-05-06T07:29:26.612Z,58.44
2019-05-06T07:30:23.722Z,58.41
2019-05-06T07:31:26.692Z,58.11
2019-05-06T07:32:23.701Z,58.31
2019-05-06T07:33:23.703Z,57.56
2019-05-06T07:34:23.688Z,57.36
2019-05-06T07:35:36.888Z,56.41
2019-05-06T07:36:24.680Z,56.00
2019-05-06T07:37:23.647Z,56.71
2019-05-06T07:38:23.641Z,56.51
2019-05-06T07:39:24.174Z,56.51
2019-05-06T07:40:23.667Z,56.30
2019-05-06T07:41:23.623Z,56.71
2019-05-06T07:42:23.633Z,56.34
2019-05-06T07:43:23.581Z,56.95
2019-05-06T07:44:23.571Z,56.95
2019-05-06T07:45:23.797Z,57.56
2019-05-06T07:46:23.715Z,57.77
2019-05-06T07:47:24.046Z,56.95
2019-05-06T07:48:23.539Z,56.92
2019-05-06T07:49:23.694Z,56.51
2019-05-06T07:50:23.515Z,56.30
2019-05-06T07:51:24.001Z,55.69
2019-05-06T07:52:23.502Z,55.87
2019-05-06T07:53:23.479Z,55.26
2019-05-06T07:54:23.471Z,55.85
2019-05-06T07:55:23.504Z,55.43
2019-05-06T07:56:23.444Z,55.98
2019-05-06T07:57:23.438Z,55.77
2019-05-06T07:58:23.435Z,55.46
2019-05-06T07:59:23.420Z,54.82
2019-05-06T08:00:23.427Z,54.72
2019-05-06T08:01:25.843Z,54.41
2019-05-06T08:02:23.377Z,54.61
2019-05-06T08:03:23.372Z,53.87
2019-05-06T08:04:23.366Z,53.16
2019-05-06T08:05:23.395Z,53.05
2019-05-06T08:06:23.352Z,53.56
2019-05-06T08:07:23.328Z,53.33
2019-05-06T08:08:23.317Z,53.54
2019-05-06T08:09:23.333Z,52.92
2019-05-06T08:10:23.311Z,51.59
2019-05-06T08:11:25.987Z,50.70
2019-05-06T08:12:23.269Z,51.21
2019-05-06T08:13:23.289Z,50.90
2019-05-06T08:14:23.252Z,50.90
2019-05-06T08:15:23.259Z,51.64
2019-05-06T08:16:23.259Z,51.85
2019-05-06T08:17:23.239Z,52.80
2019-05-06T08:18:23.211Z,52.59
2019-05-06T08:19:23.197Z,53.31
2019-05-06T08:20:23.204Z,53.28
2019-05-06T08:21:23.193Z,53.39
2019-05-06T08:22:23.171Z,53.69
2019-05-06T08:23:23.164Z,53.08
2019-05-06T08:24:23.143Z,53.49
2019-05-06T08:25:23.140Z,54.10
2019-05-06T08:26:23.159Z,53.39
2019-05-06T08:27:23.167Z,52.67
2019-05-06T08:28:37.560Z,53.59
2019-05-06T08:29:24.085Z,53.77
2019-05-06T08:30:23.270Z,53.05
2019-05-06T08:31:23.132Z,51.82
2019-05-06T08:32:23.056Z,51.62
2019-05-06T08:33:23.050Z,51.31
2019-05-06T08:34:23.039Z,51.62
2019-05-06T08:35:23.027Z,51.62
2019-05-06T08:36:23.033Z,51.62
2019-05-06T08:37:23.027Z,51.72
2019-05-06T08:38:22.997Z,52.31
2019-05-06T08:39:22.996Z,52.03
2019-05-06T08:40:26.273Z,51.93
2019-05-06T08:41:22.984Z,52.97
2019-05-06T08:42:22.948Z,52.54
2019-05-06T08:43:22.962Z,52.03
2019-05-06T08:44:22.942Z,51.59
2019-05-06T08:45:22.928Z,51.50
2019-05-06T08:46:23.471Z,51.59
2019-05-06T08:47:22.917Z,51.39
2019-05-06T08:48:22.896Z,51.47
2019-05-06T08:49:22.873Z,50.57
2019-05-06T08:50:22.869Z,48.93
2019-05-06T08:51:22.880Z,48.32
2019-05-06T08:52:22.839Z,49.37
2019-05-06T08:53:24.250Z,50.09
2019-05-06T08:54:22.977Z,50.18
2019-05-06T08:55:22.818Z,50.39
2019-05-06T08:56:22.824Z,50.49
2019-05-06T08:57:22.893Z,49.96
2019-05-06T08:58:22.786Z,50.45
2019-05-06T08:59:24.034Z,48.91
2019-05-06T09:00:22.874Z,48.99
2019-05-06T09:01:22.782Z,48.79
2019-05-06T09:02:22.945Z,48.97
2019-05-06T09:03:22.724Z,48.46
2019-05-06T09:04:23.008Z,49.09
2019-05-06T09:05:22.728Z,49.81
2019-05-06T09:06:29.639Z,49.81
2019-05-06T09:07:23.965Z,51.16
2019-05-06T09:08:22.817Z,50.85
2019-05-06T09:09:22.665Z,50.65
2019-05-06T09:10:22.888Z,49.63
2019-05-06T09:11:25.387Z,49.83
2019-05-06T09:12:22.626Z,49.81
2019-05-06T09:13:23.161Z,48.17
2019-05-06T09:14:23.670Z,48.68
2019-05-06T09:15:22.598Z,48.38
2019-05-06T09:16:22.659Z,48.46
2019-05-06T09:17:22.698Z,47.94
2019-05-06T09:18:24.122Z,47.33
2019-05-06T09:19:23.367Z,47.94
2019-05-06T09:20:23.379Z,47.33
2019-05-06T09:21:22.795Z,47.23
2019-05-06T09:22:23.532Z,46.00
2019-05-06T09:23:22.759Z,46.31
2019-05-06T09:24:23.030Z,46.53
2019-05-06T09:25:23.127Z,46.00
2019-05-06T09:26:22.568Z,46.33
2019-05-06T09:27:22.689Z,46.44
2019-05-06T09:28:23.424Z,46.94
2019-05-06T09:29:23.124Z,46.31
2019-05-06T09:30:23.033Z,46.00
2019-05-06T09:31:23.005Z,46.31
2019-05-06T09:32:22.809Z,45.82
2019-05-06T09:33:22.613Z,45.49
2019-05-06T09:34:23.355Z,45.72
2019-05-06T09:35:22.385Z,45.49
2019-05-06T09:36:22.866Z,45.29
2019-05-06T09:37:24.005Z,45.18
2019-05-06T09:38:22.855Z,44.67
2019-05-06T09:39:22.823Z,45.06
2019-05-06T09:40:22.806Z,45.98
2019-05-06T09:41:23.078Z,45.17
2019-05-06T09:42:23.086Z,44.85
2019-05-06T09:43:22.397Z,45.06
2019-05-06T09:44:22.633Z,45.98
2019-05-06T09:45:22.766Z,46.08
2019-05-06T09:46:23.112Z,45.88
2019-05-06T09:47:22.956Z,46.39
2019-05-06T09:48:22.476Z,46.08
2019-05-06T09:49:22.938Z,46.19
2019-05-06T09:50:23.064Z,46.19
2019-05-06T09:51:22.261Z,45.67
2019-05-06T09:52:23.170Z,46.39
2019-05-06T09:53:23.123Z,46.29
2019-05-06T09:54:23.588Z,45.86
2019-05-06T09:55:22.287Z,45.65
2019-05-06T09:56:23.006Z,45.65
2019-05-06T09:57:22.214Z,45.72
2019-05-06T09:58:22.832Z,45.51
2019-05-06T09:59:22.124Z,44.59
2019-05-06T10:00:23.517Z,44.59
2019-05-06T10:01:22.564Z,45.20
2019-05-06T10:02:23.091Z,44.90
2019-05-06T10:03:22.589Z,44.79
2019-05-06T10:04:22.081Z,44.18
2019-05-06T10:05:22.081Z,44.00
2019-05-06T10:06:22.313Z,45.14
2019-05-06T10:07:22.625Z,44.63
2019-05-06T10:08:22.742Z,44.84
2019-05-06T10:09:24.848Z,44.94
2019-05-06T10:10:22.405Z,44.84
2019-05-06T10:11:22.341Z,44.92
2019-05-06T10:12:22.013Z,44.00
2019-05-06T10:13:21.977Z,43.79
2019-05-06T10:14:23.364Z,43.91
2019-05-06T10:15:21.956Z,45.04
2019-05-06T10:16:21.950Z,44.43
2019-05-06T10:17:21.975Z,44.63
2019-05-06T10:18:22.635Z,44.53
2019-05-06T10:19:22.690Z,43.91
2019-05-06T10:20:22.362Z,45.25
2019-05-06T10:21:22.954Z,44.84
2019-05-06T10:22:23.328Z,44.96
2019-05-06T10:23:22.351Z,45.04
2019-05-06T10:24:21.859Z,45.88
2019-05-06T10:25:22.660Z,45.67
2019-05-06T10:26:23.454Z,45.26
2019-05-06T10:27:22.713Z,45.57
2019-05-06T10:28:23.257Z,46.19
2019-05-06T10:29:22.280Z,45.37
2019-05-06T10:30:22.555Z,45.98
2019-05-06T10:31:21.990Z,46.19
2019-05-06T10:32:22.443Z,45.25
2019-05-06T10:33:21.759Z,45.86
2019-05-06T10:34:22.207Z,44.63
2019-05-06T10:35:23.119Z,45.17
2019-05-06T10:36:21.726Z,44.32
2019-05-06T10:37:21.741Z,44.84
2019-05-06T10:38:22.740Z,44.73
2019-05-06T10:39:22.898Z,44.71
2019-05-06T10:40:22.678Z,44.18
2019-05-06T10:41:22.355Z,43.88
2019-05-06T10:42:23.073Z,44.18
2019-05-06T10:43:22.088Z,43.96
2019-05-06T10:44:22.579Z,43.24
2019-05-06T10:45:21.632Z,43.04
2019-05-06T10:46:22.556Z,43.02
2019-05-06T10:47:22.624Z,43.32
2019-05-06T10:48:22.476Z,42.83
2019-05-06T10:49:22.646Z,42.85
2019-05-06T10:50:22.966Z,42.96
2019-05-06T10:51:22.906Z,43.26
2019-05-06T10:52:21.935Z,43.26
2019-05-06T10:53:23.291Z,44.31
2019-05-06T10:54:22.881Z,43.29
2019-05-06T10:55:23.152Z,43.79
2019-05-06T10:56:23.040Z,44.00
2019-05-06T10:57:22.148Z,43.57
2019-05-06T10:58:22.502Z,43.98
2019-05-06T10:59:22.063Z,42.85
2019-05-06T11:00:23.105Z,41.73
2019-05-06T11:01:23.189Z,41.92
2019-05-06T11:02:23.254Z,41.80
2019-05-06T11:03:22.679Z,40.96
2019-05-06T11:04:22.553Z,40.53
2019-05-06T11:05:21.413Z,38.58
2019-05-06T11:06:22.126Z,39.09
2019-05-06T11:07:29.353Z,38.87
2019-05-06T11:08:22.425Z,37.85
2019-05-06T11:09:22.697Z,37.95
2019-05-06T11:10:27.711Z,37.85
2019-05-06T11:11:32.816Z,38.38
2019-05-06T11:12:22.354Z,39.11
2019-05-06T11:13:21.354Z,38.90
2019-05-06T11:14:22.859Z,39.64
2019-05-06T11:15:23.281Z,40.88
2019-05-06T11:16:23.692Z,41.28
2019-05-06T11:17:23.329Z,40.88
2019-05-06T11:18:23.351Z,41.30
2019-05-06T11:19:22.399Z,40.90
2019-05-06T11:20:23.938Z,40.69
2019-05-06T11:21:22.692Z,40.28
2019-05-06T11:22:24.640Z,41.02
2019-05-06T11:23:21.924Z,40.51
2019-05-06T11:24:23.170Z,41.22
2019-05-06T11:25:23.033Z,41.22
2019-05-06T11:26:23.558Z,41.53
2019-05-06T11:27:31.070Z,42.04
2019-05-06T11:28:22.182Z,41.94
2019-05-06T11:29:21.161Z,42.55
2019-05-06T11:30:21.880Z,42.53
2019-05-06T11:31:22.966Z,42.73
2019-05-06T11:32:23.398Z,41.98
2019-05-06T11:33:22.380Z,39.42
2019-05-06T11:34:22.171Z,37.12
2019-05-06T11:35:22.884Z,37.93
2019-05-06T11:36:23.000Z,36.34
2019-05-06T11:37:23.187Z,35.21
2019-05-06T11:38:22.775Z,35.61
2019-05-06T11:39:23.366Z,35.21
2019-05-06T11:40:23.500Z,35.09
2019-05-06T11:41:23.208Z,33.76
2019-05-06T11:42:29.015Z,34.37
2019-05-06T11:43:22.744Z,33.95
2019-05-06T11:44:23.600Z,34.06
2019-05-06T11:45:22.898Z,33.78
2019-05-06T11:46:22.885Z,33.02
2019-05-06T11:47:23.301Z,32.84
2019-05-06T11:48:22.210Z,32.30
2019-05-06T11:49:23.069Z,32.72
2019-05-06T11:50:21.996Z,32.30
2019-05-06T11:51:22.980Z,31.85
2019-05-06T11:52:22.613Z,30.73
2019-05-06T11:53:22.959Z,32.20
2019-05-06T11:54:24.255Z,32.84
2019-05-06T11:55:30.582Z,32.95
2019-05-06T11:56:23.054Z,33.27
2019-05-06T11:57:22.991Z,33.59
2019-05-06T11:58:22.362Z,34.20
2019-05-06T11:59:22.580Z,34.53
2019-05-06T12:00:23.803Z,35.55
2019-05-06T12:01:20.820Z,35.78
2019-05-06T12:02:20.912Z,36.21
2019-05-06T12:03:20.802Z,36.34
2019-05-06T12:04:22.657Z,38.31
2019-05-06T12:05:22.346Z,38.02
2019-05-06T12:06:22.656Z,37.41
2019-05-06T12:07:24.146Z,38.04
2019-05-06T12:08:22.203Z,39.15
2019-05-06T12:09:22.252Z,38.54
2019-05-06T12:10:22.498Z,38.83
2019-05-06T12:11:23.314Z,38.12
2019-05-06T12:12:23.141Z,38.02
2019-05-06T12:13:23.014Z,38.12
2019-05-06T12:14:22.673Z,37.48
2019-05-06T12:15:22.869Z,37.70
2019-05-06T12:16:25.583Z,38.00
2019-05-06T12:17:22.324Z,37.58
2019-05-06T12:18:23.151Z,38.18
2019-05-06T12:19:22.528Z,38.29
2019-05-06T12:20:22.205Z,38.59
2019-05-06T12:21:23.126Z,38.07
2019-05-06T12:22:22.149Z,37.93
2019-05-06T12:23:22.423Z,36.27
2019-05-06T12:24:22.771Z,36.46
2019-05-06T12:25:23.576Z,34.94
2019-05-06T12:26:20.572Z,35.43
2019-05-06T12:27:20.580Z,34.91
2019-05-06T12:28:20.539Z,35.73
2019-05-06T12:29:20.520Z,35.14
2019-05-06T12:30:22.752Z,34.95
2019-05-06T12:31:23.102Z,35.99
2019-05-06T12:32:22.538Z,36.41
2019-05-06T12:33:22.224Z,36.69
2019-05-06T12:34:20.469Z,36.49
2019-05-06T12:35:20.461Z,36.08
2019-05-06T12:36:20.450Z,36.41
2019-05-06T12:37:20.477Z,37.12
2019-05-06T12:38:29.478Z,36.43
2019-05-06T12:39:23.010Z,37.02
2019-05-06T12:40:20.403Z,37.13
2019-05-06T12:41:22.915Z,37.13
2019-05-06T12:42:20.416Z,36.51
2019-05-06T12:43:22.513Z,36.91
2019-05-06T12:44:22.929Z,37.62
2019-05-06T12:45:20.348Z,36.41
2019-05-06T12:46:22.531Z,37.73
2019-05-06T12:47:20.360Z,37.74
2019-05-06T12:48:20.332Z,37.76
2019-05-06T12:49:20.306Z,38.92
2019-05-06T12:50:22.496Z,39.44
2019-05-06T12:51:22.575Z,40.17
2019-05-06T12:52:22.914Z,40.78
2019-05-06T12:53:23.019Z,40.25